Time;durP1;ratioP1;P1;durP2;ratioP2;P2;SDS_P1;SDS_P2;PMS_P1;PMS_P2;Temp;Humidity;BMP_temperature;BMP_pressure;BME280_temperature;BME280_humidity;BME280_pressure;Samples;Min_cycle;Max_cycle;Signal;HPM_P1;HPM_P2
2022/08/07 00:00:46;;;;;;;5.07;2.97;;;22.30;48.80;;;;;;5020442;28;20444;-77
2022/08/07 00:03:11;;;;;;;2.83;2.30;;;22.20;48.90;;;;;;5022851;28;20321;-77
2022/08/07 00:05:38;;;;;;;3.27;2.60;;;22.20;49.10;;;;;;5020449;28;20211;-77
2022/08/07 00:08:04;;;;;;;2.63;2.43;;;22.20;49.30;;;;;;5024060;28;20211;-76
2022/08/07 00:10:31;;;;;;;3.07;2.77;;;22.20;49.30;;;;;;5020577;28;20434;-77
2022/08/07 00:12:58;;;;;;;3.90;2.40;;;22.10;49.40;;;;;;5019610;28;20431;-78
2022/08/07 00:15:24;;;;;;;2.60;2.40;;;22.10;49.50;;;;;;5020495;28;20442;-78
2022/08/07 00:17:50;;;;;;;3.00;2.40;;;22.10;50.00;;;;;;5020302;28;20470;-78
2022/08/07 00:20:16;;;;;;;6.17;2.17;;;22.00;49.50;;;;;;5016941;28;20480;-78
2022/08/07 00:22:42;;;;;;;3.63;3.20;;;22.00;49.70;;;;;;5015875;28;20588;-78
2022/08/07 00:25:08;;;;;;;3.57;2.80;;;21.90;49.70;;;;;;5022778;28;20235;-78
2022/08/07 00:27:34;;;;;;;3.10;2.80;;;21.90;49.70;;;;;;5017719;28;20205;-76
2022/08/07 00:30:01;;;;;;;4.70;3.77;;;21.90;49.90;;;;;;5018221;28;20509;-76
2022/08/07 00:32:27;;;;;;;2.97;2.77;;;21.90;49.80;;;;;;5016760;28;20454;-76
2022/08/07 00:34:52;;;;;;;2.90;2.60;;;21.80;50.00;;;;;;5014728;28;20439;-77
2022/08/07 00:37:18;;;;;;;4.10;2.50;;;21.80;49.90;;;;;;5020784;28;20994;-77
2022/08/07 00:39:44;;;;;;;2.70;2.50;;;21.70;50.00;;;;;;5016943;28;20192;-77
2022/08/07 00:42:10;;;;;;;4.13;3.00;;;21.70;50.20;;;;;;5021062;28;20268;-77
2022/08/07 00:44:36;;;;;;;3.43;2.40;;;21.70;50.20;;;;;;5014549;28;20184;-77
2022/08/07 00:47:03;;;;;;;3.13;2.60;;;21.70;50.30;;;;;;5021355;28;20671;-77
2022/08/07 00:49:30;;;;;;;3.80;2.50;;;21.60;50.30;;;;;;5018367;28;20543;-77
2022/08/07 00:51:55;;;;;;;3.63;2.63;;;21.60;50.40;;;;;;5020891;28;20439;-77
2022/08/07 00:54:21;;;;;;;4.07;2.60;;;21.60;50.40;;;;;;5021272;28;20446;-77
2022/08/07 00:56:48;;;;;;;2.93;2.50;;;21.50;50.60;;;;;;5021202;28;20227;-77
2022/08/07 00:59:14;;;;;;;2.80;2.60;;;21.60;50.60;;;;;;5021947;28;20488;-77
2022/08/07 01:01:40;;;;;;;4.53;3.23;;;21.50;50.70;;;;;;5027655;28;20442;-77
2022/08/07 01:04:07;;;;;;;3.10;2.67;;;21.50;50.80;;;;;;5020944;28;20619;-77
2022/08/07 01:06:33;;;;;;;3.20;2.53;;;21.40;50.80;;;;;;5020780;28;20989;-77
2022/08/07 01:09:00;;;;;;;2.60;2.40;;;21.40;50.90;;;;;;5020407;28;20435;-76
2022/08/07 01:11:28;;;;;;;3.77;2.63;;;21.20;51.10;;;;;;5020191;28;20443;-77
2022/08/07 01:13:53;;;;;;;2.43;2.23;;;21.20;51.20;;;;;;5021406;28;20497;-76
2022/08/07 01:16:19;;;;;;;3.40;2.57;;;21.20;51.30;;;;;;5022249;28;20455;-77
2022/08/07 01:18:45;;;;;;;2.83;2.53;;;21.20;51.40;;;;;;5019526;28;20254;-77
2022/08/07 01:21:23;;;;;;;3.37;2.47;;;21.10;51.40;;;;;;5015956;28;20451;-77
2022/08/07 01:23:50;;;;;;;4.37;2.43;;;21.10;51.40;;;;;;5017162;28;20184;-77
2022/08/07 01:26:19;;;;;;;3.20;2.50;;;21.10;51.60;;;;;;5019305;28;20529;-77
2022/08/07 01:28:47;;;;;;;4.37;2.60;;;21.10;51.60;;;;;;5021577;28;20537;-77
2022/08/07 01:31:14;;;;;;;2.83;2.40;;;21.00;51.70;;;;;;5018309;28;20431;-77
2022/08/07 01:33:41;;;;;;;6.27;3.17;;;20.90;51.90;;;;;;5019401;28;20439;-77
2022/08/07 01:36:09;;;;;;;3.83;2.40;;;20.90;52.00;;;;;;5029802;28;20459;-77
2022/08/07 01:38:35;;;;;;;3.30;2.50;;;20.80;52.00;;;;;;5018384;28;20841;-77
2022/08/07 01:41:03;;;;;;;3.80;2.50;;;20.80;52.10;;;;;;5018429;28;20485;-77
2022/08/07 01:43:29;;;;;;;2.80;2.53;;;20.80;52.10;;;;;;5021052;28;20794;-78
2022/08/07 01:45:56;;;;;;;5.03;2.40;;;20.80;52.20;;;;;;5019448;28;20467;-77
2022/08/07 01:48:23;;;;;;;4.57;2.33;;;20.80;52.30;;;;;;5017551;28;20447;-76
2022/08/07 01:50:52;;;;;;;2.50;2.30;;;20.80;52.30;;;;;;5015325;28;20442;-77
2022/08/07 01:53:21;;;;;;;3.63;2.60;;;20.80;52.30;;;;;;5017143;28;20439;-76
2022/08/07 01:55:52;;;;;;;3.30;2.20;;;20.70;52.40;;;;;;5019187;28;20468;-77
2022/08/07 01:58:21;;;;;;;2.80;2.30;;;20.70;52.40;;;;;;5017574;28;20443;-77
2022/08/07 02:00:51;;;;;;;2.33;2.13;;;20.60;52.60;;;;;;5016321;28;20499;-76
2022/08/07 02:03:20;;;;;;;3.60;2.50;;;20.60;52.50;;;;;;5017328;28;20479;-76
2022/08/07 02:05:51;;;;;;;2.90;2.60;;;20.60;52.60;;;;;;5015752;28;20506;-76
2022/08/07 02:08:20;;;;;;;3.30;2.53;;;20.60;52.60;;;;;;5017760;28;20997;-76
2022/08/07 02:10:51;;;;;;;3.23;2.20;;;20.50;52.70;;;;;;5014294;28;20435;-76
2022/08/07 02:13:22;;;;;;;2.43;2.23;;;20.50;52.60;;;;;;5016093;28;20524;-76
2022/08/07 02:15:49;;;;;;;2.90;2.67;;;20.50;52.60;;;;;;5017739;28;20466;-76
2022/08/07 02:18:15;;;;;;;3.07;2.67;;;20.50;52.60;;;;;;5014752;28;20438;-76
2022/08/07 02:20:42;;;;;;;2.80;2.50;;;20.50;52.80;;;;;;5014825;28;20455;-76
2022/08/07 02:23:09;;;;;;;3.10;2.50;;;20.50;52.80;;;;;;5016561;28;20450;-77
2022/08/07 02:25:38;;;;;;;4.10;2.40;;;20.50;52.70;;;;;;5016830;28;20494;-77
2022/08/07 02:28:05;;;;;;;4.00;2.90;;;20.40;52.80;;;;;;5014123;28;20896;-77
2022/08/07 02:30:32;;;;;;;3.63;2.40;;;20.40;52.80;;;;;;5016069;28;20454;-76
2022/08/07 02:32:59;;;;;;;2.50;2.30;;;20.40;52.80;;;;;;5015375;28;20526;-77
2022/08/07 02:35:26;;;;;;;2.30;2.10;;;20.40;52.80;;;;;;5013467;28;20435;-77
2022/08/07 02:37:52;;;;;;;2.60;2.40;;;20.40;52.70;;;;;;5019795;28;20514;-77
2022/08/07 02:40:18;;;;;;;3.07;2.33;;;20.30;52.70;;;;;;5012623;28;20927;-77
2022/08/07 02:42:45;;;;;;;2.80;2.60;;;20.30;52.80;;;;;;5019573;28;21182;-77
2022/08/07 02:45:15;;;;;;;3.70;2.60;;;20.20;52.80;;;;;;5018388;28;20993;-77
2022/08/07 02:47:41;;;;;;;3.63;2.50;;;20.20;52.90;;;;;;5014551;28;20532;-77
2022/08/07 02:50:07;;;;;;;2.60;2.40;;;20.20;53.00;;;;;;5021894;28;20439;-77
2022/08/07 02:52:46;;;;;;;2.50;2.30;;;20.20;53.00;;;;;;5021193;28;20255;-76
2022/08/07 02:55:22;;;;;;;2.80;2.23;;;20.20;53.00;;;;;;5016256;28;20434;-77
2022/08/07 02:57:49;;;;;;;5.60;2.33;;;20.20;53.10;;;;;;5017719;28;20550;-77
2022/08/07 03:00:15;;;;;;;2.97;2.30;;;20.10;53.00;;;;;;5013682;28;20884;-77
2022/08/07 03:02:45;;;;;;;3.20;2.50;;;20.10;53.20;;;;;;5018816;28;20447;-77
2022/08/07 03:05:12;;;;;;;2.57;2.37;;;20.00;53.30;;;;;;5017693;28;20462;-77
2022/08/07 03:07:39;;;;;;;2.60;2.40;;;20.00;53.30;;;;;;5019915;28;20463;-77
2022/08/07 03:10:06;;;;;;;2.53;2.20;;;20.00;53.80;;;;;;5015505;28;20510;-77
2022/08/07 03:12:33;;;;;;;2.50;2.30;;;20.00;53.40;;;;;;5020268;28;20443;-77
2022/08/07 03:15:00;;;;;;;2.77;2.30;;;20.00;53.50;;;;;;5018537;28;20442;-77
2022/08/07 03:17:26;;;;;;;3.80;2.70;;;20.00;53.50;;;;;;5021124;28;20550;-77
2022/08/07 03:19:53;;;;;;;3.40;2.70;;;20.00;53.60;;;;;;5027532;28;20437;-77
2022/08/07 03:22:21;;;;;;;3.00;2.30;;;19.90;53.40;;;;;;5018976;28;20443;-76
2022/08/07 03:24:47;;;;;;;2.63;2.30;;;19.80;53.50;;;;;;5030928;28;20436;-77
2022/08/07 03:27:14;;;;;;;2.93;2.63;;;19.90;53.50;;;;;;5022774;28;20459;-76
2022/08/07 03:29:49;;;;;;;3.70;3.10;;;19.80;53.60;;;;;;5015430;28;20807;-77
2022/08/07 03:32:24;;;;;;;4.47;2.43;;;19.80;53.60;;;;;;5015251;28;20439;-77
2022/08/07 03:34:56;;;;;;;2.63;2.10;;;19.80;53.70;;;;;;5017450;28;20435;-76
2022/08/07 03:37:23;;;;;;;3.57;2.33;;;19.80;53.70;;;;;;5017203;28;20555;-77
2022/08/07 03:39:49;;;;;;;2.93;2.30;;;19.80;53.80;;;;;;5017300;28;20445;-76
2022/08/07 03:42:17;;;;;;;3.07;2.70;;;19.70;53.80;;;;;;5011466;28;20460;-76
2022/08/07 03:44:44;;;;;;;3.00;2.47;;;19.70;53.90;;;;;;5017009;28;20516;-76
2022/08/07 03:47:11;;;;;;;4.90;2.30;;;19.70;54.00;;;;;;5034270;28;20459;-76
2022/08/07 03:49:37;;;;;;;3.63;3.17;;;19.70;54.10;;;;;;5021914;28;20483;-77
2022/08/07 03:52:05;;;;;;;5.77;2.90;;;19.70;54.10;;;;;;5019851;28;20438;-76
2022/08/07 03:54:30;;;;;;;5.73;2.43;;;19.70;54.20;;;;;;5025062;28;20451;-77
2022/08/07 03:56:56;;;;;;;3.03;2.60;;;19.60;54.90;;;;;;5014442;28;20487;-77
2022/08/07 03:59:24;;;;;;;7.27;2.90;;;19.50;54.40;;;;;;5020545;28;21076;-77
2022/08/07 04:01:53;;;;;;;2.73;2.40;;;19.50;54.50;;;;;;5020793;28;20455;-77
2022/08/07 04:04:18;;;;;;;3.80;2.30;;;19.50;54.60;;;;;;5022722;28;20447;-77
2022/08/07 04:06:44;;;;;;;2.50;2.30;;;19.50;54.70;;;;;;5023618;28;20470;-77
2022/08/07 04:09:11;;;;;;;2.93;2.50;;;19.50;54.80;;;;;;5021064;28;20181;-77
2022/08/07 04:11:37;;;;;;;4.10;2.60;;;19.40;54.90;;;;;;5020716;28;20440;-77
2022/08/07 04:14:03;;;;;;;3.30;2.60;;;19.40;55.10;;;;;;5020010;28;20904;-76
2022/08/07 04:16:30;;;;;;;4.80;2.90;;;19.40;55.20;;;;;;5018628;28;20467;-77
2022/08/07 04:18:56;;;;;;;4.63;2.70;;;19.40;55.40;;;;;;5021709;28;20446;-77
2022/08/07 04:21:22;;;;;;;3.03;2.73;;;19.40;55.50;;;;;;5022515;28;20443;-77
2022/08/07 04:23:48;;;;;;;2.57;2.37;;;19.30;55.50;;;;;;5020636;28;20185;-77
2022/08/07 04:26:14;;;;;;;2.70;2.50;;;19.30;55.60;;;;;;5020574;28;20213;-76
2022/08/07 04:28:41;;;;;;;4.73;2.67;;;19.30;55.70;;;;;;5018806;28;20454;-77
2022/08/07 04:31:07;;;;;;;3.13;2.40;;;19.30;55.90;;;;;;5019587;28;20238;-77
2022/08/07 04:33:35;;;;;;;2.73;2.53;;;19.20;55.80;;;;;;5019315;28;20929;-77
2022/08/07 04:36:02;;;;;;;3.20;2.90;;;19.20;55.90;;;;;;5020890;28;20450;-77
2022/08/07 04:38:28;;;;;;;3.20;2.90;;;19.20;55.90;;;;;;5019164;28;20448;-77
2022/08/07 04:40:54;;;;;;;2.90;2.63;;;19.10;55.90;;;;;;5019887;28;20440;-76
2022/08/07 04:43:27;;;;;;;3.07;2.70;;;19.20;56.00;;;;;;5021996;28;20455;-77
2022/08/07 04:46:04;;;;;;;3.20;2.60;;;19.10;55.90;;;;;;5020650;28;20554;-78
2022/08/07 04:48:38;;;;;;;4.80;2.80;;;19.10;56.30;;;;;;5022868;28;20439;-78
2022/08/07 04:51:09;;;;;;;3.30;2.77;;;19.10;56.20;;;;;;5016080;28;20427;-77
2022/08/07 04:54:21;;;;;;;3.00;2.70;;;19.10;56.30;;;;;;5019059;28;20467;-77
2022/08/07 04:56:55;;;;;;;5.50;3.30;;;19.10;56.40;;;;;;5001293;28;20460;-77
2022/08/07 04:59:30;;;;;;;4.67;2.60;;;19.10;56.50;;;;;;5013627;28;20439;-78
2022/08/07 05:02:07;;;;;;;2.67;2.47;;;19.10;56.50;;;;;;5018136;28;20447;-77
2022/08/07 05:04:41;;;;;;;2.70;2.50;;;19.00;56.40;;;;;;5017302;28;20438;-77
2022/08/07 05:07:22;;;;;;;3.23;2.73;;;19.00;56.50;;;;;;5013054;28;20465;-77
2022/08/07 05:10:15;;;;;;;2.70;2.30;;;19.00;56.60;;;;;;5017379;28;20504;-77
2022/08/07 05:12:49;;;;;;;2.60;2.40;;;19.00;56.70;;;;;;5017693;28;20476;-77
2022/08/07 05:15:21;;;;;;;2.60;2.40;;;19.00;56.80;;;;;;5023827;28;20785;-77
2022/08/07 05:17:50;;;;;;;3.27;2.97;;;19.00;56.90;;;;;;5019115;28;20447;-77
2022/08/07 05:20:20;;;;;;;4.57;2.90;;;19.00;56.90;;;;;;5020173;28;20454;-77
2022/08/07 05:22:48;;;;;;;3.20;2.90;;;19.00;57.00;;;;;;5018163;28;20447;-78
2022/08/07 05:25:16;;;;;;;3.13;2.80;;;19.00;57.00;;;;;;5035982;28;20525;-77
2022/08/07 05:27:44;;;;;;;2.87;2.67;;;19.00;57.20;;;;;;5024263;28;20451;-78
2022/08/07 05:30:11;;;;;;;3.37;2.70;;;19.00;57.20;;;;;;5028610;28;20443;-77
2022/08/07 05:32:38;;;;;;;3.00;2.60;;;19.00;57.20;;;;;;5028469;28;20461;-77
2022/08/07 05:35:07;;;;;;;3.83;2.80;;;19.00;57.10;;;;;;5020091;28;20532;-77
2022/08/07 05:37:33;;;;;;;3.30;2.87;;;19.00;57.10;;;;;;5023776;28;20498;-77
2022/08/07 05:39:59;;;;;;;3.63;2.93;;;19.00;57.10;;;;;;5018042;28;20439;-77
2022/08/07 05:42:26;;;;;;;6.90;2.73;;;19.00;57.20;;;;;;5021755;28;20872;-76
2022/08/07 05:44:53;;;;;;;3.80;3.00;;;19.00;57.10;;;;;;5019629;28;20444;-77
2022/08/07 05:47:20;;;;;;;3.27;2.70;;;19.00;57.20;;;;;;5017648;28;20463;-77
2022/08/07 05:49:50;;;;;;;4.43;2.37;;;19.10;57.20;;;;;;5016686;28;20440;-76
2022/08/07 05:52:17;;;;;;;2.60;2.40;;;19.10;57.30;;;;;;5021063;28;20431;-77
2022/08/07 05:54:43;;;;;;;3.63;2.70;;;19.10;57.20;;;;;;5019827;28;20448;-77
2022/08/07 05:57:10;;;;;;;3.20;2.50;;;19.20;57.20;;;;;;5021239;28;20463;-77
2022/08/07 05:59:39;;;;;;;4.53;2.40;;;19.20;57.10;;;;;;5019360;28;20188;-76
2022/08/07 06:02:06;;;;;;;3.30;2.70;;;19.30;57.10;;;;;;5020080;28;20502;-77
2022/08/07 06:04:36;;;;;;;3.57;3.10;;;19.30;57.00;;;;;;5016010;28;20872;-78
2022/08/07 06:07:04;;;;;;;2.80;2.30;;;19.30;57.00;;;;;;5017841;28;20470;-77
2022/08/07 06:09:31;;;;;;;2.93;2.73;;;19.40;56.80;;;;;;5016405;28;20426;-77
2022/08/07 06:11:58;;;;;;;2.87;2.67;;;19.40;56.60;;;;;;5021140;28;20429;-77
2022/08/07 06:14:24;;;;;;;2.40;2.20;;;19.50;56.40;;;;;;5019387;28;20454;-77
2022/08/07 06:16:51;;;;;;;2.50;2.30;;;19.50;56.30;;;;;;5015778;28;20490;-76
2022/08/07 06:19:18;;;;;;;3.43;2.47;;;19.60;56.20;;;;;;5017461;28;20447;-75
2022/08/07 06:21:45;;;;;;;2.97;2.50;;;19.60;56.10;;;;;;5014273;28;20515;-75
2022/08/07 06:24:11;;;;;;;4.23;2.27;;;19.70;56.00;;;;;;5018279;28;20447;-75
2022/08/07 06:26:41;;;;;;;2.50;2.30;;;19.70;55.80;;;;;;5019594;28;20577;-75
2022/08/07 06:29:07;;;;;;;3.63;2.50;;;19.80;55.80;;;;;;5025722;28;20533;-74
2022/08/07 06:31:33;;;;;;;2.77;2.47;;;19.80;55.70;;;;;;5016317;28;20435;-76
2022/08/07 06:33:59;;;;;;;4.63;2.60;;;19.80;55.50;;;;;;5021973;28;20863;-76
2022/08/07 06:36:29;;;;;;;2.63;2.43;;;19.90;55.60;;;;;;5021969;28;20457;-77
2022/08/07 06:38:54;;;;;;;3.23;2.60;;;19.90;55.50;;;;;;5023498;28;20539;-76
2022/08/07 06:41:36;;;;;;;2.57;2.37;;;20.00;55.60;;;;;;5030292;28;20433;-76
2022/08/07 06:44:04;;;;;;;2.83;2.40;;;20.00;55.50;;;;;;5021763;28;20462;-76
2022/08/07 06:46:30;;;;;;;3.57;2.47;;;20.10;55.40;;;;;;5023157;28;20479;-77
2022/08/07 06:48:55;;;;;;;2.60;2.20;;;20.10;55.50;;;;;;5017088;28;20446;-77
2022/08/07 06:51:26;;;;;;;7.47;2.70;;;20.20;55.50;;;;;;5022638;28;20588;-77
2022/08/07 06:53:53;;;;;;;2.50;2.30;;;20.20;55.40;;;;;;5025449;28;20180;-77
2022/08/07 06:56:38;;;;;;;2.50;2.30;;;20.20;55.70;;;;;;5026861;28;20601;-77
2022/08/07 06:59:06;;;;;;;3.27;2.50;;;20.30;55.80;;;;;;5027788;28;20478;-77
2022/08/07 07:01:33;;;;;;;3.20;2.90;;;20.30;55.90;;;;;;5024780;28;20450;-76
2022/08/07 07:03:59;;;;;;;3.10;2.80;;;20.40;55.90;;;;;;5026718;28;20438;-76
2022/08/07 07:06:25;;;;;;;2.90;2.60;;;20.50;55.80;;;;;;5023642;28;20475;-76
2022/08/07 07:08:51;;;;;;;4.80;2.93;;;20.60;55.90;;;;;;5016510;28;20438;-77
2022/08/07 07:11:17;;;;;;;3.60;3.27;;;20.60;56.00;;;;;;5027173;28;20647;-76
2022/08/07 07:13:49;;;;;;;2.90;2.60;;;20.60;55.90;;;;;;5027674;28;20198;-76
2022/08/07 07:16:19;;;;;;;2.77;2.43;;;20.70;56.00;;;;;;5026275;28;20819;-77
2022/08/07 07:18:56;;;;;;;3.30;2.70;;;20.80;56.70;;;;;;5024500;28;20433;-76
2022/08/07 07:21:26;;;;;;;3.07;2.50;;;20.80;56.20;;;;;;5033860;28;20434;-76
2022/08/07 07:23:53;;;;;;;6.57;3.10;;;20.80;56.10;;;;;;5025039;28;20415;-77
2022/08/07 07:26:22;;;;;;;3.50;3.20;;;20.90;56.20;;;;;;5027134;28;20504;-77
2022/08/07 07:28:58;;;;;;;3.03;2.60;;;21.00;56.50;;;;;;5028880;28;20522;-75
2022/08/07 07:31:39;;;;;;;2.47;2.27;;;21.10;56.60;;;;;;5025150;28;20438;-76
2022/08/07 07:34:09;;;;;;;3.20;2.90;;;21.10;56.60;;;;;;5027950;28;20953;-75
2022/08/07 07:36:37;;;;;;;4.40;2.90;;;21.20;56.50;;;;;;5036003;28;20493;-76
2022/08/07 07:39:04;;;;;;;3.90;3.50;;;21.20;56.60;;;;;;5023359;28;21004;-76
2022/08/07 07:41:32;;;;;;;3.30;3.00;;;21.30;56.90;;;;;;5031304;28;20830;-76
2022/08/07 07:44:00;;;;;;;3.50;3.10;;;21.30;57.10;;;;;;5032562;28;20892;-77
2022/08/07 07:46:30;;;;;;;6.77;2.90;;;21.40;57.20;;;;;;5029837;28;20880;-76
2022/08/07 07:48:59;;;;;;;4.40;3.00;;;21.50;57.30;;;;;;5029301;28;20429;-76
2022/08/07 07:51:27;;;;;;;4.77;3.03;;;21.50;57.50;;;;;;5029448;28;20530;-76
2022/08/07 07:53:54;;;;;;;3.50;3.20;;;21.60;57.60;;;;;;5025076;28;20442;-75
2022/08/07 07:56:23;;;;;;;3.10;2.77;;;21.60;57.70;;;;;;5028596;28;20463;-76
2022/08/07 07:58:49;;;;;;;4.63;3.03;;;21.70;57.90;;;;;;5026256;28;20952;-76
2022/08/07 08:01:17;;;;;;;3.50;3.20;;;21.70;57.90;;;;;;5028787;28;20422;-76
2022/08/07 08:03:44;;;;;;;4.70;3.20;;;21.80;58.10;;;;;;5027194;28;20696;-76
2022/08/07 08:06:11;;;;;;;3.67;3.27;;;21.80;58.20;;;;;;5022011;28;20476;-76
2022/08/07 08:08:40;;;;;;;3.30;3.00;;;21.90;58.20;;;;;;5025564;28;20445;-76
2022/08/07 08:11:08;;;;;;;3.70;3.40;;;21.90;58.20;;;;;;5017002;28;20431;-77
2022/08/07 08:13:41;;;;;;;3.70;3.30;;;22.10;58.30;;;;;;5033038;28;20818;-77
2022/08/07 08:16:11;;;;;;;10.13;3.53;;;22.10;58.50;;;;;;5029371;28;20903;-76
2022/08/07 08:18:37;;;;;;;3.40;3.10;;;22.20;58.70;;;;;;5032406;28;20423;-76
2022/08/07 08:21:04;;;;;;;5.60;3.73;;;22.30;58.80;;;;;;5031545;28;20443;-76
2022/08/07 08:29:05;;;;;;;4.60;3.20;;;22.40;59.20;;;;;;5030262;28;20871;-77
2022/08/07 08:31:35;;;;;;;3.30;3.00;;;22.40;59.10;;;;;;5026751;28;20436;-77
2022/08/07 08:34:04;;;;;;;5.30;3.20;;;22.50;58.90;;;;;;5028261;28;20431;-77
2022/08/07 08:36:32;;;;;;;4.00;3.63;;;22.60;58.80;;;;;;5022021;28;20455;-76
2022/08/07 08:39:00;;;;;;;3.40;3.10;;;22.70;58.90;;;;;;5026689;28;20439;-76
2022/08/07 08:41:47;;;;;;;3.73;3.43;;;22.80;58.90;;;;;;5028170;28;20518;-76
2022/08/07 08:44:34;;;;;;;3.73;3.20;;;22.80;58.60;;;;;;5024353;28;20510;-76
2022/08/07 08:47:12;;;;;;;3.40;3.10;;;22.90;58.60;;;;;;5025944;28;20523;-76
2022/08/07 08:49:58;;;;;;;3.67;3.27;;;22.90;58.80;;;;;;5026651;28;20526;-77
2022/08/07 08:52:32;;;;;;;6.00;3.27;;;23.00;58.80;;;;;;5023499;28;20879;-76
2022/08/07 08:55:18;;;;;;;3.30;3.00;;;23.10;58.70;;;;;;5027156;28;20926;-76
2022/08/07 08:57:55;;;;;;;4.30;3.10;;;23.20;58.60;;;;;;5023201;28;20453;-76
2022/08/07 09:00:22;;;;;;;3.20;3.00;;;23.30;58.60;;;;;;5026266;28;20494;-76
2022/08/07 09:03:23;;;;;;;3.17;2.97;;;23.30;58.40;;;;;;5029007;28;20428;-76
2022/08/07 09:05:57;;;;;;;3.30;2.80;;;23.40;58.40;;;;;;5028511;28;20518;-75
2022/08/07 09:08:38;;;;;;;6.40;3.50;;;23.50;58.20;;;;;;5026929;28;20501;-75
2022/08/07 09:11:16;;;;;;;3.70;3.13;;;23.60;58.30;;;;;;5024668;28;20489;-75
2022/08/07 09:13:59;;;;;;;3.57;3.27;;;23.60;58.10;;;;;;5026610;28;20411;-77
2022/08/07 09:16:54;;;;;;;3.43;2.90;;;23.70;57.90;;;;;;5028946;28;20459;-77
2022/08/07 09:19:34;;;;;;;3.43;3.13;;;23.80;57.80;;;;;;5026836;28;20446;-76
2022/08/07 09:22:19;;;;;;;3.60;3.30;;;23.90;57.70;;;;;;5026032;28;20631;-76
2022/08/07 09:24:57;;;;;;;3.83;3.40;;;23.90;57.40;;;;;;5031433;28;20712;-81
2022/08/07 09:27:48;;;;;;;5.63;3.17;;;24.00;57.30;;;;;;5029490;28;20465;-77
2022/08/07 09:30:16;;;;;;;3.33;2.93;;;24.10;57.20;;;;;;4993085;28;20970;-77
2022/08/07 09:33:10;;;;;;;4.30;3.90;;;24.10;57.10;;;;;;5023560;28;20423;-76
2022/08/07 09:36:01;;;;;;;3.83;3.43;;;24.20;56.90;;;;;;5027771;28;20435;-77
2022/08/07 09:38:37;;;;;;;3.80;3.50;;;24.30;56.30;;;;;;5025868;28;20446;-77
2022/08/07 09:41:34;;;;;;;3.30;3.00;;;24.30;56.10;;;;;;5024270;28;20438;-77
2022/08/07 09:44:23;;;;;;;3.37;3.07;;;24.40;55.90;;;;;;5005032;28;20443;-74
2022/08/07 09:46:58;;;;;;;3.43;3.13;;;24.50;54.70;;;;;;5036871;28;20470;-77
2022/08/07 09:49:35;;;;;;;5.20;2.97;;;24.50;54.30;;;;;;5021304;28;20426;-76
2022/08/07 09:52:19;;;;;;;3.63;2.73;;;24.60;54.20;;;;;;5017973;28;21130;-76
2022/08/07 09:54:47;;;;;;;3.47;2.97;;;24.70;53.10;;;;;;5019485;28;20442;-77
2022/08/07 09:57:30;;;;;;;4.00;2.80;;;24.80;52.90;;;;;;5026376;28;20447;-77
2022/08/07 10:00:13;;;;;;;3.10;2.70;;;24.90;52.70;;;;;;5019430;28;20431;-77
2022/08/07 10:03:03;;;;;;;5.00;3.37;;;24.90;53.00;;;;;;5026334;28;20863;-77
2022/08/07 10:05:50;;;;;;;4.77;3.10;;;24.90;52.60;;;;;;5019554;28;20889;-77
2022/08/07 10:08:43;;;;;;;4.00;2.70;;;25.00;52.50;;;;;;5024522;28;20426;-77
2022/08/07 10:11:46;;;;;;;2.87;2.67;;;25.10;51.50;;;;;;5025898;28;20437;-77
2022/08/07 10:14:30;;;;;;;3.13;2.80;;;25.20;49.50;;;;;;5023611;28;20803;-76
2022/08/07 10:17:33;;;;;;;4.23;2.77;;;25.30;48.00;;;;;;5022776;28;20474;-77
2022/08/07 10:20:19;;;;;;;3.43;2.70;;;25.40;47.60;;;;;;5018848;28;21118;-76
2022/08/07 10:23:06;;;;;;;6.77;3.20;;;25.50;47.00;;;;;;5020685;28;21299;-77
2022/08/07 10:26:02;;;;;;;2.73;2.33;;;25.50;47.20;;;;;;5022317;28;21208;-76
2022/08/07 10:28:30;;;;;;;3.10;2.80;;;25.60;46.80;;;;;;5020931;28;20538;-76
2022/08/07 10:31:11;;;;;;;2.53;2.33;;;25.70;47.40;;;;;;5025492;28;20855;-76
2022/08/07 10:34:13;;;;;;;2.60;2.40;;;25.80;47.40;;;;;;5022738;28;20477;-76
2022/08/07 10:37:00;;;;;;;3.87;2.23;;;25.80;47.00;;;;;;5010346;28;20450;-76
2022/08/07 10:39:58;;;;;;;2.70;2.50;;;25.90;46.70;;;;;;5025271;28;20435;-76
2022/08/07 10:42:54;;;;;;;2.80;2.60;;;26.00;46.90;;;;;;4971046;28;20437;-76
2022/08/07 10:45:32;;;;;;;3.43;2.57;;;26.00;46.60;;;;;;5017209;28;20460;-76
2022/08/07 10:48:03;;;;;;;4.67;2.20;;;26.00;46.50;;;;;;5018268;28;20809;-76
2022/08/07 10:50:35;;;;;;;2.60;2.37;;;26.10;46.40;;;;;;5013680;28;20531;-76
2022/08/07 10:53:14;;;;;;;2.50;2.30;;;26.10;46.40;;;;;;5021214;28;20410;-76
2022/08/07 10:55:42;;;;;;;3.23;2.30;;;26.20;46.30;;;;;;5019373;28;20444;-76
2022/08/07 10:58:33;;;;;;;2.50;2.30;;;26.30;46.30;;;;;;5024118;28;20496;-76
2022/08/07 11:01:11;;;;;;;4.10;2.17;;;26.30;46.00;;;;;;5021817;28;20526;-76
2022/08/07 11:04:01;;;;;;;2.63;2.43;;;26.40;45.70;;;;;;5029196;28;20433;-76
2022/08/07 11:07:05;;;;;;;2.90;2.60;;;26.50;45.70;;;;;;5027846;28;20490;-76
2022/08/07 11:09:38;;;;;;;3.00;2.70;;;26.50;45.80;;;;;;5024551;28;20967;-76
2022/08/07 11:12:15;;;;;;;3.97;2.60;;;26.50;45.70;;;;;;5023486;28;20434;-76
2022/08/07 11:14:48;;;;;;;4.00;3.20;;;26.60;45.40;;;;;;5023182;28;20434;-76
2022/08/07 11:17:22;;;;;;;2.63;2.43;;;26.70;45.50;;;;;;5019143;28;20452;-76
2022/08/07 11:20:07;;;;;;;2.93;2.53;;;26.80;45.70;;;;;;5022118;28;20434;-76
2022/08/07 11:22:45;;;;;;;2.50;2.30;;;26.90;45.40;;;;;;5036998;28;21167;-76
2022/08/07 11:25:19;;;;;;;2.47;2.27;;;26.90;45.30;;;;;;5022608;28;20950;-76
2022/08/07 11:27:50;;;;;;;2.30;2.10;;;27.00;44.70;;;;;;5022338;28;21283;-76
2022/08/07 11:30:23;;;;;;;2.50;2.30;;;27.00;44.20;;;;;;5020760;28;20448;-76
2022/08/07 11:32:58;;;;;;;2.90;2.23;;;27.10;44.10;;;;;;5023990;28;20423;-76
2022/08/07 11:35:44;;;;;;;2.67;2.47;;;27.20;44.40;;;;;;5041956;28;20431;-76
2022/08/07 11:38:32;;;;;;;2.70;2.20;;;27.20;43.80;;;;;;5022807;28;20435;-76
2022/08/07 11:41:15;;;;;;;3.10;2.77;;;27.30;44.00;;;;;;5020913;28;20452;-76
2022/08/07 11:44:05;;;;;;;2.60;2.40;;;27.40;44.10;;;;;;5020489;28;20811;-76
2022/08/07 11:46:56;;;;;;;2.70;2.50;;;27.60;43.50;;;;;;5018054;28;20513;-76
2022/08/07 11:49:40;;;;;;;3.50;3.20;;;27.70;42.60;;;;;;5022493;28;20423;-77
2022/08/07 11:52:38;;;;;;;5.27;2.60;;;27.80;41.80;;;;;;5022340;28;21006;-76
2022/08/07 11:55:10;;;;;;;2.47;2.27;;;27.90;42.30;;;;;;5026011;28;20473;-76
2022/08/07 11:57:59;;;;;;;2.70;2.50;;;28.00;41.90;;;;;;5028038;28;20439;-76
2022/08/07 12:00:37;;;;;;;2.40;2.20;;;28.20;41.50;;;;;;5022311;28;21155;-77
2022/08/07 12:03:24;;;;;;;2.60;2.40;;;28.40;41.60;;;;;;5033195;28;20826;-76
2022/08/07 12:06:17;;;;;;;2.87;2.57;;;28.60;40.60;;;;;;5024438;28;20541;-76
2022/08/07 12:09:00;;;;;;;2.73;2.53;;;28.80;40.00;;;;;;5020567;28;21001;-76
2022/08/07 12:11:34;;;;;;;7.30;2.50;;;29.10;40.30;;;;;;5025029;28;20438;-76
2022/08/07 12:14:23;;;;;;;2.77;2.50;;;29.60;40.40;;;;;;5024117;28;20530;-76
2022/08/07 12:17:02;;;;;;;2.33;2.13;;;30.10;39.00;;;;;;5025701;28;20521;-76
2022/08/07 12:19:52;;;;;;;3.33;2.50;;;30.50;38.60;;;;;;5019976;28;20444;-76
2022/08/07 12:22:34;;;;;;;2.30;2.10;;;31.00;38.30;;;;;;5023371;28;20527;-76
2022/08/07 12:28:48;;;;;;;3.87;2.33;;;31.80;37.20;;;;;;5021371;28;20430;-76
2022/08/07 12:31:23;;;;;;;2.37;2.17;;;32.00;36.60;;;;;;5019304;28;20494;-76
2022/08/07 12:33:51;;;;;;;2.57;2.37;;;32.20;35.90;;;;;;5016441;28;20426;-76
2022/08/07 12:36:19;;;;;;;2.30;2.10;;;32.40;36.40;;;;;;5020272;28;20506;-76
2022/08/07 12:38:46;;;;;;;2.30;2.10;;;32.80;36.40;;;;;;5022606;28;20474;-76
2022/08/07 12:41:15;;;;;;;2.60;2.33;;;33.00;35.50;;;;;;5020640;28;20481;-74
2022/08/07 12:43:43;;;;;;;2.60;2.40;;;33.10;35.20;;;;;;5017490;28;20431;-75
2022/08/07 12:46:37;;;;;;;2.90;2.10;;;33.20;34.40;;;;;;5025768;28;20483;-77
2022/08/07 12:49:24;;;;;;;2.30;2.07;;;33.30;34.50;;;;;;5019658;28;20434;-75
2022/08/07 12:52:09;;;;;;;2.60;2.40;;;33.50;33.80;;;;;;5020027;28;20564;-76
2022/08/07 12:54:43;;;;;;;2.40;2.20;;;33.70;33.30;;;;;;5031344;28;20406;-75
2022/08/07 12:57:09;;;;;;;2.40;2.20;;;33.80;31.80;;;;;;5026068;28;20461;-76
2022/08/07 12:59:36;;;;;;;2.60;2.33;;;34.00;32.00;;;;;;5018283;28;20490;-76
2022/08/07 13:02:38;;;;;;;3.13;2.00;;;34.10;32.40;;;;;;5021183;28;20447;-75
2022/08/07 13:05:37;;;;;;;2.40;2.20;;;34.30;33.00;;;;;;5021303;28;20410;-76
2022/08/07 13:08:47;;;;;;;2.83;2.23;;;34.50;33.10;;;;;;5021194;28;20461;-76
2022/08/07 13:11:13;;;;;;;4.10;2.10;;;34.60;32.60;;;;;;5016460;28;20481;-76
2022/08/07 13:14:22;;;;;;;2.57;2.37;;;34.80;32.90;;;;;;5018800;28;21314;-75
2022/08/07 13:17:08;;;;;;;3.87;2.20;;;34.90;32.10;;;;;;4994898;28;20219;-76
2022/08/07 13:19:45;;;;;;;2.60;2.40;;;35.00;32.00;;;;;;5017915;28;20524;-76
2022/08/07 13:22:31;;;;;;;2.30;2.10;;;35.10;32.00;;;;;;5018119;28;20397;-76
2022/08/07 13:25:09;;;;;;;3.30;2.03;;;35.00;30.80;;;;;;5021405;28;20515;-76
2022/08/07 13:27:47;;;;;;;3.80;2.20;;;35.00;31.50;;;;;;5018356;28;20438;-76